Time;durP1;ratioP1;P1;durP2;ratioP2;P2;SDS_P1;SDS_P2;PMS_P1;PMS_P2;Temp;Humidity;BMP_temperature;BMP_pressure;BME280_temperature;BME280_humidity;BME280_pressure;Samples;Min_cycle;Max_cycle;Signal;HPM_P1;HPM_P2
2022/09/28 00:00:51;;;;;;;4.90;2.90;;;;;;;15.24;100.00;100298.34;2089800;28;20653;-57
2022/09/28 00:01:51;;;;;;;5.47;3.17;;;;;;;15.23;100.00;100296.78;2089728;28;20178;-58
2022/09/28 00:02:56;;;;;;;6.73;2.97;;;;;;;15.17;100.00;100298.69;2096463;28;20211;-57
2022/09/28 00:03:57;;;;;;;4.30;2.67;;;;;;;15.15;100.00;100290.00;2097772;28;20198;-58
2022/09/28 00:04:57;;;;;;;7.07;2.97;;;;;;;15.05;100.00;100283.69;2097581;28;21033;-57
2022/09/28 00:06:04;;;;;;;5.53;2.50;;;;;;;15.12;100.00;100299.31;2097947;28;20194;-57
2022/09/28 00:07:04;;;;;;;6.07;2.60;;;;;;;14.98;100.00;100277.66;2096975;28;20179;-58
2022/09/28 00:08:04;;;;;;;6.50;2.67;;;;;;;15.08;100.00;100298.72;2097090;28;20413;-57
2022/09/28 00:09:05;;;;;;;3.10;2.20;;;;;;;15.07;100.00;100297.94;2097934;28;20180;-57
2022/09/28 00:10:07;;;;;;;8.50;2.60;;;;;;;15.07;100.00;100295.13;2097817;28;20186;-57
2022/09/28 00:11:11;;;;;;;7.73;2.80;;;;;;;15.06;100.00;100290.81;2089749;28;20646;-58
2022/09/28 00:12:12;;;;;;;4.40;2.63;;;;;;;15.04;100.00;100295.31;2089900;28;20505;-58
2022/09/28 00:13:12;;;;;;;7.63;3.10;;;;;;;15.03;100.00;100293.75;2094935;28;20429;-58
2022/09/28 00:14:13;;;;;;;4.47;2.93;;;;;;;15.00;100.00;100295.47;2093866;28;20192;-57
2022/09/28 00:15:13;;;;;;;5.10;2.60;;;;;;;14.95;100.00;100292.53;2091385;28;20663;-57
2022/09/28 00:16:16;;;;;;;5.33;2.43;;;;;;;14.95;100.00;100292.53;2097833;28;20233;-57
2022/09/28 00:17:21;;;;;;;56.93;4.73;;;;;;;14.97;100.00;100293.63;2097586;28;20676;-57
2022/09/28 00:18:21;;;;;;;4.30;2.67;;;;;;;14.93;100.00;100290.25;2098030;28;20422;-57
2022/09/28 00:19:21;;;;;;;54.00;4.33;;;;;;;14.91;100.00;100295.50;2097723;28;20456;-57
2022/09/28 00:20:22;;;;;;;5.87;2.90;;;;;;;14.90;100.00;100293.97;2090640;28;20220;-57
2022/09/28 00:21:26;;;;;;;9.60;3.03;;;;;;;14.90;100.00;100296.00;2089920;28;20187;-57
2022/09/28 00:22:27;;;;;;;5.90;2.43;;;;;;;14.89;100.00;100300.00;2093235;28;20202;-57
2022/09/28 00:23:27;;;;;;;5.17;2.80;;;;;;;14.88;100.00;100284.50;2094864;28;20899;-57
2022/09/28 00:24:29;;;;;;;4.53;2.50;;;;;;;14.88;100.00;100287.31;2089402;28;20437;-58
2022/09/28 00:25:30;;;;;;;8.23;2.90;;;;;;;14.88;100.00;100287.31;2089644;28;20685;-57
2022/09/28 00:26:32;;;;;;;6.90;2.50;;;;;;;14.88;100.00;100293.66;2090651;28;20417;-57
2022/09/28 00:27:33;;;;;;;5.13;2.60;;;;;;;14.88;100.00;100287.31;2098365;28;20445;-57
2022/09/28 00:28:33;;;;;;;6.53;3.10;;;;;;;14.86;100.00;100287.00;2099508;28;20437;-57
2022/09/28 00:29:36;;;;;;;8.87;3.23;;;;;;;14.85;100.00;100288.25;2099349;28;20567;-57
2022/09/28 00:30:36;;;;;;;7.53;2.80;;;;;;;14.83;100.00;100288.72;2099072;28;20199;-57
2022/09/28 00:31:37;;;;;;;5.00;2.40;;;;;;;14.83;100.00;100290.72;2099200;28;20508;-58
2022/09/28 00:32:37;;;;;;;5.07;2.50;;;;;;;14.78;100.00;100288.56;2098218;28;20183;-57
2022/09/28 00:33:39;;;;;;;5.33;2.10;;;;;;;14.77;100.00;100285.03;2091159;28;20176;-57
2022/09/28 00:34:44;;;;;;;8.70;2.30;;;;;;;14.30;100.00;100211.53;2090570;28;20565;-57
2022/09/28 00:35:45;;;;;;;6.57;2.30;;;;;;;14.70;100.00;100279.00;2097841;28;20548;-57
2022/09/28 00:36:46;;;;;;;7.93;2.67;;;;;;;14.76;100.00;100293.84;2099178;28;20459;-57
2022/09/28 00:37:47;;;;;;;9.10;2.50;;;;;;;14.74;100.00;100288.72;2098786;28;20191;-57
2022/09/28 00:38:48;;;;;;;7.73;2.87;;;;;;;14.73;100.00;100292.78;2099485;28;20431;-57
2022/09/28 00:39:49;;;;;;;7.07;2.80;;;;;;;14.72;100.00;100299.59;2099038;28;20179;-57
2022/09/28 00:40:49;;;;;;;9.20;2.57;;;;;;;14.72;100.00;100301.59;2099375;28;20217;-58
2022/09/28 00:41:50;;;;;;;5.40;2.60;;;;;;;13.97;100.00;100196.66;2099243;28;20187;-57
2022/09/28 00:42:50;;;;;;;5.90;2.60;;;;;;;14.25;100.00;100228.88;2098979;28;20199;-57
2022/09/28 00:43:51;;;;;;;7.63;2.50;;;;;;;14.62;100.00;100300.84;2099386;28;20195;-57
2022/09/28 00:44:56;;;;;;;7.03;2.13;;;;;;;14.66;100.00;100309.06;2099087;28;20219;-57
2022/09/28 00:46:09;;;;;;;4.70;2.53;;;;;;;14.50;100.00;100279.47;2099260;28;20426;-57
2022/09/28 00:47:43;;;;;;;7.27;2.57;;;;;;;14.63;100.00;100304.41;2098963;28;20510;-57
2022/09/28 00:48:56;;;;;;;4.93;2.70;;;;;;;14.61;100.00;100301.31;2098666;28;21004;-57
2022/09/28 00:50:04;;;;;;;6.03;3.50;;;;;;;14.44;100.00;100284.13;2097712;28;20433;-57
2022/09/28 00:51:10;;;;;;;3.77;2.93;;;;;;;14.57;100.00;100306.28;2099400;28;20417;-57
2022/09/28 00:52:15;;;;;;;3.57;2.83;;;;;;;14.55;100.00;100300.41;2091146;28;20468;-56
2022/09/28 00:53:25;;;;;;;7.50;3.20;;;;;;;14.54;100.00;100313.56;2091024;28;20426;-57
2022/09/28 00:54:26;;;;;;;5.83;3.10;;;;;;;14.41;100.00;100281.50;2091085;28;20409;-57
2022/09/28 00:55:38;;;;;;;6.27;3.30;;;;;;;14.53;100.00;100306.44;2097939;28;20448;-58
2022/09/28 00:56:43;;;;;;;4.87;2.90;;;;;;;14.53;100.00;100300.84;2099099;28;20218;-57
2022/09/28 00:57:49;;;;;;;5.63;3.60;;;;;;;14.53;100.00;100300.06;2091825;28;20434;-57
2022/09/28 00:58:52;;;;;;;4.90;2.80;;;;;;;14.51;100.00;100303.31;2091051;28;20409;-58
2022/09/28 00:59:53;;;;;;;4.83;2.53;;;;;;;14.51;100.00;100299.78;2095162;28;20437;-57
2022/09/28 01:00:56;;;;;;;5.43;3.00;;;;;;;14.49;100.00;100299.47;2099063;28;20448;-57
2022/09/28 01:01:57;;;;;;;3.23;2.20;;;;;;;14.48;100.00;100298.69;2098974;28;21025;-57
2022/09/28 01:02:58;;;;;;;4.70;2.70;;;;;;;14.49;100.00;100296.69;2098994;28;20461;-57
2022/09/28 01:04:01;;;;;;;10.07;3.00;;;;;;;14.49;100.00;100296.69;2098772;28;20171;-57
2022/09/28 01:05:04;;;;;;;5.50;2.57;;;;;;;14.48;100.00;100304.28;2090920;28;20584;-57
2022/09/28 01:06:07;;;;;;;4.10;2.53;;;;;;;14.47;100.00;100302.72;2098452;28;20445;-57
2022/09/28 01:07:08;;;;;;;5.63;2.60;;;;;;;14.47;100.00;100302.72;2099088;28;20474;-57
2022/09/28 01:08:10;;;;;;;4.63;2.80;;;;;;;14.45;100.00;100294.03;2098680;28;20942;-57
2022/09/28 01:09:12;;;;;;;5.80;2.57;;;;;;;14.07;100.00;100243.56;2098564;28;20441;-57
2022/09/28 01:10:13;;;;;;;3.67;2.40;;;;;;;14.05;100.00;100234.91;2099182;28;20482;-57
2022/09/28 01:11:13;;;;;;;5.70;2.30;;;;;;;14.44;100.00;100306.44;2098926;28;20414;-57
2022/09/28 01:12:15;;;;;;;3.17;2.70;;;;;;;14.45;100.00;100310.00;2099112;28;20210;-57
2022/09/28 01:13:17;;;;;;;6.43;2.63;;;;;;;14.42;100.00;100310.94;2099141;28;20171;-57
2022/09/28 01:14:19;;;;;;;2.50;2.30;;;;;;;14.24;100.00;100271.94;2098914;28;20450;-57
2022/09/28 01:15:21;;;;;;;6.40;2.40;;;;;;;13.89;100.00;100218.50;2098872;28;20481;-57
2022/09/28 01:16:50;;;;;;;5.87;2.80;;;;;;;14.24;100.00;100271.94;2099284;28;20442;-57
2022/09/28 01:17:54;;;;;;;3.03;2.47;;;;;;;14.39;100.00;100293.13;2090908;28;20781;-57
2022/09/28 01:19:16;;;;;;;3.53;2.50;;;;;;;14.37;100.00;100289.25;2097780;28;20444;-57
2022/09/28 01:20:47;;;;;;;4.20;2.80;;;;;;;14.35;100.00;100289.72;2090859;28;20479;-57
2022/09/28 01:21:58;;;;;;;4.40;2.10;;;;;;;14.33;100.00;100291.41;2093724;28;20422;-57
2022/09/28 01:23:31;;;;;;;5.77;2.30;;;;;;;14.25;100.00;100288.16;2099105;28;20417;-57
2022/09/28 01:24:44;;;;;;;6.03;3.30;;;;;;;14.23;100.00;100289.88;2098968;28;20515;-57
2022/09/28 01:26:18;;;;;;;5.47;2.40;;;;;;;13.88;100.00;100247.59;2099137;28;20889;-58
2022/09/28 01:27:23;;;;;;;5.67;2.70;;;;;;;14.13;100.00;100291.09;2098995;28;20426;-57
2022/09/28 01:28:27;;;;;;;5.60;2.87;;;;;;;14.06;100.00;100294.19;2098890;28;20909;-57
2022/09/28 01:29:46;;;;;;;15.60;3.37;;;;;;;14.02;100.00;100294.34;2099004;28;20927;-57
2022/09/28 01:31:09;;;;;;;18.43;3.10;;;;;;;14.00;100.00;100296.03;2091497;28;20761;-57
2022/09/28 01:32:45;;;;;;;125.47;5.60;;;;;;;14.00;100.00;100291.25;2099015;28;20412;-57
2022/09/28 01:33:59;;;;;;;39.40;3.33;;;;;;;13.90;100.00;100294.47;2073331;28;20450;-57
2022/09/28 01:35:23;;;;;;;27.23;2.60;;;;;;;13.83;100.00;100278.09;2073045;28;20505;-57
2022/09/28 01:36:49;;;;;;;2.90;2.33;;;;;;;13.87;100.00;100290.59;2082948;28;20441;-57
2022/09/28 01:38:18;;;;;;;11.17;2.67;;;;;;;13.84;100.00;100293.56;2089571;28;20436;-57
2022/09/28 01:39:27;;;;;;;3.50;2.53;;;;;;;13.42;100.00;100231.31;2089318;28;20434;-57
2022/09/28 01:40:30;;;;;;;3.73;2.50;;;;;;;13.82;100.00;100291.22;2090717;28;20586;-57
2022/09/28 01:41:35;;;;;;;4.90;2.10;;;;;;;13.81;100.00;100306.38;2090636;28;20425;-57
2022/09/28 01:42:38;;;;;;;3.90;2.90;;;;;;;13.69;100.00;100279.44;2090394;28;20821;-57
2022/09/28 01:43:45;;;;;;;4.37;2.40;;;;;;;13.83;100.00;100300.38;2090597;28;20433;-57
2022/09/28 01:44:50;;;;;;;3.10;2.33;;;;;;;13.77;100.00;100293.81;2090647;28;20468;-57
2022/09/28 01:46:19;;;;;;;4.30;2.40;;;;;;;13.75;100.00;100319.38;2090609;28;20438;-57
2022/09/28 01:47:22;;;;;;;6.43;2.70;;;;;;;13.65;100.00;100315.03;2082320;28;20441;-57
2022/09/28 01:48:38;;;;;;;25.57;5.17;;;;;;;13.67;100.00;100312.53;2098412;28;20485;-57
2022/09/28 01:49:44;;;;;;;5.00;3.80;;;;;;;13.54;100.00;100292.41;2091417;28;20417;-57
2022/09/28 01:50:48;;;;;;;6.07;2.70;;;;;;;13.72;100.00;100316.72;2098819;28;20413;-57
2022/09/28 01:52:01;;;;;;;6.03;3.67;;;;;;;13.45;100.00;100264.56;2098996;28;20478;-57
2022/09/28 01:53:22;;;;;;;5.17;4.07;;;;;;;13.76;100.00;100311.78;2090656;28;20398;-57
2022/09/28 01:54:30;;;;;;;3.63;2.10;;;;;;;13.73;100.00;100316.25;2090653;28;20418;-57
2022/09/28 01:55:36;;;;;;;5.30;2.80;;;;;;;13.21;100.00;100237.75;2090656;28;20434;-57
2022/09/28 01:56:45;;;;;;;4.70;3.67;;;;;;;13.66;100.00;100318.56;2090515;28;20406;-57
2022/09/28 01:58:02;;;;;;;8.87;3.73;;;;;;;13.51;100.00;100309.25;2098684;28;20826;-57
2022/09/28 01:59:11;;;;;;;6.00;3.90;;;;;;;13.63;100.00;100327.84;2090495;28;20504;-57
2022/09/28 02:00:14;;;;;;;9.17;6.80;;;;;;;13.24;100.00;100267.41;2090455;28;20852;-57
2022/09/28 02:01:22;;;;;;;9.97;6.80;;;;;;;13.60;100.00;100332.34;2090565;28;20417;-57
2022/09/28 02:02:31;;;;;;;36.70;8.03;;;;;;;13.66;100.00;100322.13;2090474;28;20487;-57
2022/09/28 02:03:38;;;;;;;76.73;9.07;;;;;;;13.73;100.00;100327.41;2097936;28;20471;-57
2022/09/28 02:04:48;;;;;;;99.20;9.53;;;;;;;13.73;100.00;100330.19;2098351;28;20449;-57
2022/09/28 02:06:01;;;;;;;109.20;9.23;;;;;;;13.73;100.00;100324.63;2098811;28;20407;-57
2022/09/28 02:07:08;;;;;;;87.87;8.70;;;;;;;13.76;100.00;100331.28;2098091;28;20888;-57
2022/09/28 02:08:16;;;;;;;106.17;9.10;;;;;;;13.75;100.00;100330.53;2098730;28;20405;-57
2022/09/28 02:09:57;;;;;;;55.17;8.80;;;;;;;13.76;100.00;100331.28;2098572;28;20448;-57
2022/09/28 02:11:01;;;;;;;15.37;6.97;;;;;;;13.72;100.00;100328.63;2092114;28;20447;-57
2022/09/28 02:12:26;;;;;;;7.90;5.40;;;;;;;13.77;100.00;100330.81;2098587;28;20436;-57
2022/09/28 02:13:38;;;;;;;9.23;6.07;;;;;;;13.77;100.00;100338.38;2098748;28;20910;-57
2022/09/28 02:14:41;;;;;;;9.00;4.87;;;;;;;13.75;100.00;100327.72;2098434;28;20471;-57
2022/09/28 02:15:49;;;;;;;7.23;6.40;;;;;;;13.74;100.00;100323.38;2098432;28;20430;-57
2022/09/28 02:16:53;;;;;;;8.47;6.10;;;;;;;13.56;100.00;100306.63;2098378;28;20810;-57
2022/09/28 02:17:53;;;;;;;8.37;6.00;;;;;;;13.22;100.00;100250.41;2096174;28;20945;-57
2022/09/28 02:18:54;;;;;;;7.27;6.00;;;;;;;13.38;100.00;100267.59;2090348;28;20564;-57
2022/09/28 02:19:55;;;;;;;7.37;6.50;;;;;;;13.81;100.00;100330.66;2090383;28;20174;-57
2022/09/28 02:21:05;;;;;;;10.97;6.60;;;;;;;13.83;100.00;100328.22;2098641;28;20422;-57
2022/09/28 02:22:08;;;;;;;8.30;5.87;;;;;;;13.85;100.00;100334.09;2090354;28;20207;-58
2022/09/28 02:23:09;;;;;;;7.07;5.77;;;;;;;13.81;100.00;100337.03;2098094;28;20950;-57
2022/09/28 02:24:16;;;;;;;7.10;5.83;;;;;;;13.90;100.00;100334.25;2098676;28;20515;-58
2022/09/28 02:25:16;;;;;;;7.70;6.40;;;;;;;13.93;100.00;100341.69;2091625;28;20458;-57
2022/09/28 02:26:21;;;;;;;7.30;5.50;;;;;;;13.95;100.00;100341.22;2095782;28;20436;-58
2022/09/28 02:27:40;;;;;;;5.77;5.03;;;;;;;13.98;100.00;100343.09;2098651;28;20191;-57
2022/09/28 02:28:40;;;;;;;6.33;5.43;;;;;;;13.98;100.00;100343.84;2098439;28;20472;-58
2022/09/28 02:29:41;;;;;;;6.50;5.30;;;;;;;13.99;100.00;100341.84;2098566;28;20459;-57
2022/09/28 02:30:43;;;;;;;6.00;5.23;;;;;;;14.00;100.00;100341.41;2098584;28;20254;-57
2022/09/28 02:31:44;;;;;;;6.77;5.10;;;;;;;14.03;100.00;100342.50;2098491;28;20194;-58
2022/09/28 02:32:48;;;;;;;6.97;5.70;;;;;;;14.04;100.00;100342.00;2097779;28;20421;-58
2022/09/28 02:33:52;;;;;;;6.43;5.77;;;;;;;14.04;100.00;100342.00;2090032;28;20177;-58
2022/09/28 02:34:54;;;;;;;7.53;4.87;;;;;;;14.06;100.00;100344.34;2098069;28;20463;-57
2022/09/28 02:35:56;;;;;;;14.27;4.37;;;;;;;14.06;100.00;100344.34;2098312;28;20418;-58
2022/09/28 02:36:57;;;;;;;7.17;3.97;;;;;;;14.06;100.00;100345.13;2089544;28;20956;-57
2022/09/28 02:37:57;;;;;;;6.63;3.50;;;;;;;14.06;100.00;100344.34;2097033;28;20864;-58
2022/09/28 02:39:01;;;;;;;9.93;3.60;;;;;;;13.98;100.00;100329.94;2098402;28;20270;-57
2022/09/28 02:40:02;;;;;;;7.63;3.50;;;;;;;14.06;100.00;100344.34;2098321;28;20567;-58
2022/09/28 02:41:15;;;;;;;8.40;3.93;;;;;;;14.03;100.00;100348.06;2098413;28;20914;-57
2022/09/28 02:42:16;;;;;;;42.70;5.20;;;;;;;13.99;100.00;100337.03;2093126;28;20513;-57
2022/09/28 02:43:26;;;;;;;27.50;4.57;;;;;;;13.96;100.00;100332.41;2090160;28;21029;-57
2022/09/28 02:44:59;;;;;;;10.67;3.90;;;;;;;13.90;100.00;100339.84;2090109;28;20192;-57
2022/09/28 02:46:10;;;;;;;31.30;3.47;;;;;;;13.80;100.00;100335.47;2090213;28;20399;-57
2022/09/28 02:47:45;;;;;;;12.27;3.10;;;;;;;13.80;100.00;100334.69;2090087;28;20414;-58
2022/09/28 02:48:57;;;;;;;6.67;3.53;;;;;;;13.76;100.00;100336.84;2080077;28;20439;-57
2022/09/28 02:50:18;;;;;;;10.60;3.80;;;;;;;13.71;100.00;100337.44;2089894;28;20415;-57
2022/09/28 02:51:22;;;;;;;3.73;3.20;;;;;;;13.70;100.00;100333.13;2094146;28;20525;-57
2022/09/28 02:52:47;;;;;;;4.90;3.53;;;;;;;13.69;100.00;100337.91;2098338;28;20418;-57
2022/09/28 02:54:03;;;;;;;6.13;3.57;;;;;;;13.69;100.00;100340.69;2098381;28;20428;-58
2022/09/28 02:55:37;;;;;;;5.97;3.27;;;;;;;13.69;100.00;100345.50;2097991;28;20569;-57
2022/09/28 02:56:43;;;;;;;4.27;2.70;;;;;;;13.68;100.00;100338.38;2089886;28;20446;-58
2022/09/28 02:58:21;;;;;;;4.50;3.00;;;;;;;13.66;100.00;100336.06;2090041;28;20468;-57
2022/09/28 02:59:45;;;;;;;5.43;3.10;;;;;;;13.65;100.00;100340.09;2093554;28;20445;-58
2022/09/28 03:00:59;;;;;;;4.37;2.80;;;;;;;13.65;100.00;100336.50;2098159;28;20433;-57
2022/09/28 03:02:29;;;;;;;4.90;3.47;;;;;;;13.72;100.00;100342.56;2098263;28;20470;-57
2022/09/28 03:04:06;;;;;;;5.27;3.60;;;;;;;13.71;100.00;100338.22;2090745;28;20410;-57
2022/09/28 03:05:14;;;;;;;9.13;3.67;;;;;;;13.69;100.00;100337.16;2098045;28;20470;-57
2022/09/28 03:06:36;;;;;;;5.83;3.30;;;;;;;13.33;100.00;100284.91;2098247;28;20429;-57
2022/09/28 03:07:44;;;;;;;8.50;3.37;;;;;;;13.64;100.00;100332.19;2098045;28;20448;-57
2022/09/28 03:08:59;;;;;;;8.73;3.33;;;;;;;13.63;100.00;100334.19;2097977;28;20972;-57
2022/09/28 03:10:05;;;;;;;7.00;2.23;;;;;;;13.62;100.00;100334.66;2098123;28;20417;-57
2022/09/28 03:11:18;;;;;;;5.53;2.20;;;;;;;13.55;100.00;100326.59;2091991;28;20958;-57
2022/09/28 03:12:22;;;;;;;6.23;2.10;;;;;;;13.59;100.00;100335.56;2095684;28;20452;-57
2022/09/28 03:13:24;;;;;;;5.67;2.50;;;;;;;13.57;100.00;100330.47;2098144;28;20430;-57
2022/09/28 03:14:25;;;;;;;3.40;2.57;;;;;;;13.55;100.00;100327.38;2097695;28;20471;-58
2022/09/28 03:15:29;;;;;;;2.90;2.60;;;;;;;13.34;100.00;100314.31;2097978;28;20445;-57
2022/09/28 03:16:30;;;;;;;2.93;2.23;;;;;;;13.54;100.00;100334.19;2095849;28;20176;-58
2022/09/28 03:17:31;;;;;;;2.30;2.10;;;;;;;13.53;100.00;100343.72;2090936;28;20429;-57
2022/09/28 03:18:31;;;;;;;6.10;2.30;;;;;;;13.51;100.00;100332.28;2098052;28;20406;-57
2022/09/28 03:19:33;;;;;;;3.43;2.43;;;;;;;13.49;100.00;100337.56;2098000;28;20753;-57
2022/09/28 03:20:34;;;;;;;4.33;2.57;;;;;;;12.51;100.00;100185.66;2090532;28;20187;-58
2022/09/28 03:21:34;;;;;;;2.93;2.60;;;;;;;13.48;100.00;100332.44;2089807;28;20410;-57
2022/09/28 03:22:34;;;;;;;3.97;3.17;;;;;;;13.46;100.00;100332.91;2089712;28;20183;-57
2022/09/28 03:23:35;;;;;;;3.17;2.73;;;;;;;13.44;100.00;100332.59;2091521;28;20202;-57
2022/09/28 03:24:35;;;;;;;4.13;3.23;;;;;;;13.19;100.00;100295.84;2090598;28;20264;-57
2022/09/28 03:25:36;;;;;;;6.23;2.80;;;;;;;13.45;100.00;100338.91;2098014;28;20228;-57
2022/09/28 03:26:39;;;;;;;4.07;3.13;;;;;;;13.44;100.00;100335.38;2098055;28;20168;-57
2022/09/28 03:27:40;;;;;;;3.63;2.90;;;;;;;13.44;100.00;100346.50;2097471;28;20745;-57
2022/09/28 03:28:41;;;;;;;3.87;3.07;;;;;;;13.43;100.00;100342.16;2097951;28;20429;-57
2022/09/28 03:29:41;;;;;;;4.83;2.93;;;;;;;13.42;100.00;100350.97;2098084;28;20449;-57
2022/09/28 03:30:42;;;;;;;6.97;3.10;;;;;;;13.43;100.00;100355.31;2094652;28;20184;-57
2022/09/28 03:31:43;;;;;;;4.17;3.00;;;;;;;13.44;100.00;100356.84;2089589;28;20207;-57
2022/09/28 03:32:44;;;;;;;4.63;3.20;;;;;;;13.40;100.00;100353.44;2090114;28;20196;-57
2022/09/28 03:33:44;;;;;;;4.57;3.20;;;;;;;13.31;100.00;100348.59;2098076;28;20179;-57
2022/09/28 03:34:44;;;;;;;5.53;3.10;;;;;;;13.30;100.00;100351.84;2098004;28;20179;-57
2022/09/28 03:35:47;;;;;;;4.23;2.80;;;;;;;13.27;100.00;100350.75;2091412;28;20395;-57
2022/09/28 03:36:47;;;;;;;5.77;3.10;;;;;;;13.23;100.00;100355.66;2089749;28;20172;-57
2022/09/28 03:37:47;;;;;;;6.87;3.30;;;;;;;13.19;100.00;100349.50;2089688;28;20919;-57
2022/09/28 03:38:51;;;;;;;7.80;3.40;;;;;;;13.19;100.00;100345.91;2092425;28;20198;-57
2022/09/28 03:39:51;;;;;;;8.20;3.40;;;;;;;13.19;100.00;100345.91;2097870;28;20676;-57
2022/09/28 03:40:57;;;;;;;6.73;3.90;;;;;;;13.18;100.00;100336.81;2097846;28;20787;-57
2022/09/28 03:41:59;;;;;;;7.47;3.60;;;;;;;13.08;100.00;100326.88;2098064;28;20175;-57
2022/09/28 03:43:00;;;;;;;8.67;3.50;;;;;;;13.14;100.00;100329.81;2089807;28;20428;-57
2022/09/28 03:44:00;;;;;;;5.63;4.33;;;;;;;13.21;100.00;100337.91;2096974;28;20528;-57
2022/09/28 03:45:01;;;;;;;5.20;3.30;;;;;;;13.21;100.00;100333.09;2098000;28;20219;-57
2022/09/28 03:46:01;;;;;;;9.80;3.83;;;;;;;13.23;100.00;100332.66;2092826;28;20743;-57
2022/09/28 03:47:02;;;;;;;9.13;3.47;;;;;;;13.25;100.00;100332.94;2092602;28;20187;-57
2022/09/28 03:48:03;;;;;;;9.37;3.90;;;;;;;12.88;100.00;100272.78;2095354;28;20202;-57
2022/09/28 03:49:03;;;;;;;6.53;3.70;;;;;;;13.26;100.00;100331.72;2089810;28;20913;-57
2022/09/28 03:50:05;;;;;;;6.87;3.27;;;;;;;13.26;100.00;100338.06;2089704;28;20173;-57
2022/09/28 03:51:08;;;;;;;6.13;3.20;;;;;;;13.29;100.00;100328.81;2097718;28;20187;-57
2022/09/28 03:52:08;;;;;;;5.33;3.73;;;;;;;13.31;100.00;100329.13;2097264;28;20516;-57
2022/09/28 03:53:09;;;;;;;9.27;3.27;;;;;;;13.12;100.00;100307.25;2097064;28;20969;-58
2022/09/28 03:54:09;;;;;;;4.77;2.97;;;;;;;13.33;100.00;100332.22;2088917;28;20182;-57
2022/09/28 03:55:10;;;;;;;7.17;3.10;;;;;;;13.24;100.00;100318.28;2092007;28;20194;-57
2022/09/28 03:56:14;;;;;;;5.20;3.20;;;;;;;12.99;100.00;100276.75;2095668;28;20203;-57
2022/09/28 03:57:14;;;;;;;5.73;3.30;;;;;;;13.37;100.00;100337.66;2090223;28;20180;-58
2022/09/28 03:58:16;;;;;;;6.23;3.43;;;;;;;13.39;100.00;100343.53;2097979;28;20417;-57
2022/09/28 03:59:17;;;;;;;8.03;2.90;;;;;;;13.26;100.00;100328.94;2089734;28;20179;-57
2022/09/28 04:00:18;;;;;;;6.87;3.33;;;;;;;13.36;100.00;100331.31;2096662;28;21000;-57
2022/09/28 04:01:18;;;;;;;6.40;3.37;;;;;;;13.42;100.00;100339.84;2091542;28;20183;-57
2022/09/28 04:02:18;;;;;;;6.90;3.47;;;;;;;13.42;100.00;100339.84;2094201;28;20198;-57
2022/09/28 04:03:19;;;;;;;3.73;3.27;;;;;;;12.58;100.00;100212.41;2098016;28;20183;-57
2022/09/28 04:04:19;;;;;;;7.20;3.20;;;;;;;13.44;100.00;100346.50;2097943;28;20184;-57
2022/09/28 04:05:20;;;;;;;8.30;3.43;;;;;;;13.46;100.00;100354.38;2097564;28;20651;-57
2022/09/28 04:06:21;;;;;;;6.40;3.20;;;;;;;13.48;100.00;100346.38;2097513;28;20172;-57
2022/09/28 04:07:21;;;;;;;6.80;3.33;;;;;;;13.16;100.00;100308.66;2097675;28;20178;-57
2022/09/28 04:08:22;;;;;;;8.10;3.67;;;;;;;13.47;100.00;100348.34;2097601;28;20248;-57
2022/09/28 04:09:22;;;;;;;8.47;3.93;;;;;;;13.49;100.00;100348.69;2091450;28;20180;-57
2022/09/28 04:10:24;;;;;;;6.07;3.43;;;;;;;13.50;100.00;100355.03;2089471;28;20738;-57
2022/09/28 04:11:25;;;;;;;10.80;3.70;;;;;;;13.39;100.00;100333.19;2089377;28;20260;-57
2022/09/28 04:12:25;;;;;;;10.03;3.80;;;;;;;13.40;100.00;100339.50;2092535;28;20436;-57
2022/09/28 04:13:27;;;;;;;7.00;4.07;;;;;;;13.51;100.00;100362.13;2092563;28;20182;-57
2022/09/28 04:14:28;;;;;;;7.83;4.17;;;;;;;13.52;100.00;100360.91;2097247;28;20195;-57
2022/09/28 04:15:28;;;;;;;7.37;4.30;;;;;;;13.51;100.00;100370.47;2097316;28;20424;-57
2022/09/28 04:16:29;;;;;;;9.13;3.77;;;;;;;13.50;100.00;100360.59;2097217;28;20215;-57
2022/09/28 04:17:31;;;;;;;9.27;3.43;;;;;;;13.51;100.00;100362.13;2097715;28;20180;-57
2022/09/28 04:18:32;;;;;;;9.70;3.60;;;;;;;13.47;100.00;100362.28;2091395;28;20228;-57
2022/09/28 04:19:32;;;;;;;10.27;3.73;;;;;;;13.45;100.00;100359.19;2089041;28;20500;-57
2022/09/28 04:20:33;;;;;;;8.13;3.67;;;;;;;13.39;100.00;100346.31;2092300;28;20491;-57
2022/09/28 04:21:34;;;;;;;7.90;3.40;;;;;;;13.46;100.00;100354.38;2094691;28;20179;-57
2022/09/28 04:22:36;;;;;;;7.77;3.27;;;;;;;13.47;100.00;100358.72;2088672;28;20210;-57
2022/09/28 04:23:38;;;;;;;10.07;3.90;;;;;;;13.47;100.00;100358.72;2094377;28;20199;-57
2022/09/28 04:24:40;;;;;;;8.43;3.50;;;;;;;13.49;100.00;100361.81;2088772;28;20796;-57
2022/09/28 04:25:46;;;;;;;8.87;3.80;;;;;;;13.52;100.00;100366.50;2092588;28;20443;-57
2022/09/28 04:26:47;;;;;;;9.23;4.30;;;;;;;13.39;100.00;100341.53;2096014;28;20891;-57
2022/09/28 04:29:17;;;;;;;8.43;4.27;;;;;;;13.62;100.00;100373.66;2096159;28;20226;-57
2022/09/28 04:30:18;;;;;;;6.63;4.03;;;;;;;13.64;100.00;100380.31;2094808;28;20498;-58
2022/09/28 04:31:21;;;;;;;12.53;4.67;;;;;;;13.68;100.00;100382.94;2093576;28;20490;-58
2022/09/28 04:32:22;;;;;;;11.03;5.17;;;;;;;13.69;100.00;100393.59;2095180;28;20207;-57
2022/09/28 04:33:22;;;;;;;15.03;8.60;;;;;;;13.69;100.00;100393.59;2095082;28;20509;-58
2022/09/28 04:34:22;;;;;;;12.57;6.37;;;;;;;13.60;100.00;100387.22;2096515;28;20276;-57
2022/09/28 04:35:23;;;;;;;8.73;4.53;;;;;;;13.62;100.00;100393.13;2095161;28;20191;-57
2022/09/28 04:36:24;;;;;;;8.70;4.00;;;;;;;13.62;100.00;100401.47;2092292;28;20192;-60
2022/09/28 04:37:24;;;;;;;4.87;3.63;;;;;;;13.43;100.00;100372.78;2093383;28;20198;-60
2022/09/28 04:38:24;;;;;;;5.33;3.40;;;;;;;13.59;100.00;100405.97;2096314;28;20218;-60
2022/09/28 04:39:25;;;;;;;4.83;3.97;;;;;;;13.61;100.00;100392.34;2094550;28;20777;-60
2022/09/28 04:40:25;;;;;;;8.03;4.77;;;;;;;13.60;100.00;100390.81;2094274;28;20213;-57
2022/09/28 04:41:26;;;;;;;6.00;4.53;;;;;;;13.58;100.00;100389.72;2095080;28;20183;-60
2022/09/28 04:42:26;;;;;;;7.00;5.47;;;;;;;13.43;100.00;100372.00;2094261;28;20658;-60
2022/09/28 04:43:27;;;;;;;6.90;4.67;;;;;;;13.59;100.00;100391.25;2093211;28;20225;-60
2022/09/28 04:44:28;;;;;;;9.33;6.80;;;;;;;13.51;100.00;100370.47;2094242;28;20276;-60
2022/09/28 04:45:28;;;;;;;7.10;4.93;;;;;;;13.59;100.00;100389.25;2095070;28;20464;-60
2022/09/28 04:46:29;;;;;;;5.40;4.23;;;;;;;13.40;100.00;100362.56;2095249;28;20183;-60
2022/09/28 04:47:29;;;;;;;5.37;4.47;;;;;;;13.27;100.00;100333.28;2095793;28;20188;-60
2022/09/28 04:48:30;;;;;;;6.50;4.23;;;;;;;13.59;100.00;100392.03;2089987;28;20631;-60
2022/09/28 04:49:31;;;;;;;4.93;4.43;;;;;;;13.53;100.00;100390.31;2091167;28;20183;-60
2022/09/28 04:50:31;;;;;;;6.77;4.40;;;;;;;13.37;100.00;100374.59;2091488;28;20194;-60
2022/09/28 04:51:32;;;;;;;6.93;3.60;;;;;;;13.57;100.00;100394.50;2092888;28;20267;-60
2022/09/28 04:52:35;;;;;;;8.37;4.20;;;;;;;13.59;100.00;100394.03;2093634;28;20258;-61
2022/09/28 04:53:36;;;;;;;5.10;3.47;;;;;;;13.59;100.00;100394.81;2094146;28;20444;-60
2022/09/28 04:54:36;;;;;;;7.90;4.23;;;;;;;12.87;100.00;100294.25;2095372;28;20437;-65
2022/09/28 04:55:39;;;;;;;8.07;4.57;;;;;;;13.63;100.00;100400.25;2091758;28;20243;-65
2022/09/28 04:56:40;;;;;;;6.30;5.00;;;;;;;13.63;100.00;100391.91;2089977;28;20185;-65
2022/09/28 04:57:41;;;;;;;9.07;4.80;;;;;;;13.56;100.00;100379.03;2091465;28;21260;-65
2022/09/28 04:58:41;;;;;;;6.43;5.00;;;;;;;13.38;100.00;100353.88;2093776;28;20423;-65
2022/09/28 04:59:42;;;;;;;9.10;4.50;;;;;;;13.59;100.00;100383.69;2095245;28;20181;-65
2022/09/28 05:00:42;;;;;;;10.63;4.33;;;;;;;13.75;100.00;100396.56;2087525;28;20200;-65
2022/09/28 05:01:43;;;;;;;6.60;3.67;;;;;;;13.79;100.00;100394.41;2089417;28;20196;-62
2022/09/28 05:02:44;;;;;;;5.80;4.60;;;;;;;13.84;100.00;100402.94;2091770;28;20194;-62